Time;durP1;ratioP1;P1;durP2;ratioP2;P2;SDS_P1;SDS_P2;PMS_P1;PMS_P2;Temp;Humidity;BMP_temperature;BMP_pressure;BME280_temperature;BME280_humidity;BME280_pressure;Samples;Min_cycle;Max_cycle;Signal;HPM_P1;HPM_P2
2022/11/30 00:00:30;;;;;;;155.77;148.88;;;6.10;99.90;;;;;;5051162;28;20038;-86
2022/11/30 00:02:56;;;;;;;155.77;148.75;;;6.10;99.90;;;;;;5046429;28;20384;-85
2022/11/30 00:05:24;;;;;;;97.18;91.95;;;6.00;99.90;;;;;;5059365;28;20715;-87
2022/11/30 00:07:49;;;;;;;142.52;135.77;;;6.00;99.90;;;;;;5064242;28;20037;-87
2022/11/30 00:10:15;;;;;;;124.07;117.97;;;6.00;99.90;;;;;;5045542;28;20109;-84
2022/11/30 00:12:44;;;;;;;115.10;109.63;;;6.00;99.90;;;;;;5060704;28;20039;-88
2022/11/30 00:15:12;;;;;;;124.47;117.93;;;6.00;99.90;;;;;;5058980;28;20082;-89
2022/11/30 00:17:39;;;;;;;119.55;112.97;;;6.00;99.90;;;;;;5058035;28;20410;-87
2022/11/30 00:20:06;;;;;;;99.13;93.63;;;6.10;99.90;;;;;;5053789;28;20032;-88
2022/11/30 00:22:32;;;;;;;118.22;112.40;;;6.00;99.90;;;;;;5075855;28;20040;-88
2022/11/30 00:24:59;;;;;;;113.55;107.97;;;5.90;99.90;;;;;;5057026;28;20037;-85
2022/11/30 00:27:26;;;;;;;130.60;123.82;;;6.00;99.90;;;;;;5056959;28;20039;-87
2022/11/30 00:29:52;;;;;;;87.45;82.55;;;5.90;99.90;;;;;;5051090;28;20068;-86
2022/11/30 00:32:18;;;;;;;113.72;108.15;;;5.80;99.90;;;;;;5050873;28;20044;-85
2022/11/30 00:34:43;;;;;;;116.70;110.47;;;5.80;99.90;;;;;;5062870;28;20117;-87
2022/11/30 00:37:09;;;;;;;127.30;121.43;;;5.90;99.90;;;;;;5047133;28;20128;-87
2022/11/30 00:39:34;;;;;;;110.43;104.22;;;5.80;99.90;;;;;;5045633;28;20048;-88
2022/11/30 00:42:00;;;;;;;107.88;102.22;;;5.80;99.90;;;;;;5040576;28;20022;-85
2022/11/30 00:44:26;;;;;;;122.22;116.63;;;5.90;99.90;;;;;;5040157;28;20033;-88
2022/11/30 00:46:51;;;;;;;115.43;109.05;;;5.90;99.90;;;;;;5042575;28;20435;-87
2022/11/30 00:49:17;;;;;;;102.18;96.45;;;5.80;99.90;;;;;;5036986;28;20403;-84
2022/11/30 00:51:43;;;;;;;115.60;109.82;;;5.90;99.90;;;;;;5050372;28;20040;-86
2022/11/30 00:54:08;;;;;;;101.65;96.20;;;5.80;99.90;;;;;;5032245;28;20485;-87
2022/11/30 00:56:34;;;;;;;128.02;121.35;;;5.90;99.90;;;;;;5049278;28;20048;-86
2022/11/30 00:58:59;;;;;;;117.30;111.53;;;5.90;99.90;;;;;;5057753;28;20057;-86
2022/11/30 01:01:25;;;;;;;124.18;117.97;;;5.90;99.90;;;;;;5049216;28;20025;-88
2022/11/30 01:03:51;;;;;;;150.95;143.23;;;5.90;99.90;;;;;;5057715;28;20029;-87
2022/11/30 01:06:16;;;;;;;125.05;118.70;;;5.80;99.90;;;;;;5055977;28;20045;-88
2022/11/30 01:08:42;;;;;;;128.20;121.78;;;5.70;99.90;;;;;;5047093;28;20183;-86
2022/11/30 01:11:15;;;;;;;126.80;120.57;;;5.50;99.90;;;;;;5054863;28;20402;-83
2022/11/30 01:13:41;;;;;;;113.97;108.13;;;5.60;99.90;;;;;;5072820;28;20395;-85
2022/11/30 01:16:15;;;;;;;88.45;83.45;;;5.60;99.90;;;;;;5059752;28;20052;-86
2022/11/30 01:18:43;;;;;;;111.57;106.03;;;5.70;99.90;;;;;;5056116;28;20060;-85
2022/11/30 01:21:12;;;;;;;106.72;100.78;;;5.70;99.90;;;;;;5056933;28;20046;-83
2022/11/30 01:23:38;;;;;;;94.32;88.97;;;5.70;99.90;;;;;;5038199;28;20029;-86
2022/11/30 01:26:04;;;;;;;74.65;70.13;;;5.70;99.90;;;;;;5061714;28;20021;-86
2022/11/30 01:28:30;;;;;;;106.32;100.07;;;5.70;99.90;;;;;;5053017;28;20376;-87
2022/11/30 01:30:58;;;;;;;72.45;67.97;;;5.70;99.90;;;;;;5054798;28;20033;-87
2022/11/30 01:33:23;;;;;;;114.85;108.38;;;5.60;99.90;;;;;;5059431;28;20056;-87
2022/11/30 01:35:58;;;;;;;96.22;91.30;;;5.60;99.90;;;;;;5055811;28;20037;-85
2022/11/30 01:38:24;;;;;;;105.20;97.93;;;5.60;99.90;;;;;;5062962;28;20054;-88
2022/11/30 01:40:50;;;;;;;110.60;104.18;;;5.70;99.90;;;;;;5053541;28;20029;-84
2022/11/30 01:43:18;;;;;;;105.72;99.28;;;5.60;99.90;;;;;;5058720;28;20112;-87
2022/11/30 01:45:44;;;;;;;99.75;93.63;;;5.60;99.90;;;;;;5052996;28;20021;-86
2022/11/30 01:48:09;;;;;;;88.55;82.53;;;5.70;99.90;;;;;;5056705;28;20036;-87
2022/11/30 01:50:36;;;;;;;120.65;114.80;;;5.70;99.90;;;;;;5059075;28;20037;-84
2022/11/30 01:53:02;;;;;;;105.05;99.55;;;5.70;99.90;;;;;;5056286;28;20149;-85
2022/11/30 01:55:43;;;;;;;92.65;87.82;;;5.70;99.90;;;;;;5075673;28;20037;-87
2022/11/30 01:58:13;;;;;;;125.22;118.53;;;5.70;99.90;;;;;;5071075;28;20498;-86
2022/11/30 02:00:44;;;;;;;118.53;112.38;;;5.70;99.90;;;;;;5055293;28;20399;-84
2022/11/30 02:03:40;;;;;;;77.00;72.20;;;5.70;99.90;;;;;;5052093;28;20028;-84
2022/11/30 02:06:07;;;;;;;85.50;80.72;;;5.60;99.90;;;;;;5054753;28;20029;-85
2022/11/30 02:08:33;;;;;;;74.00;69.85;;;5.60;99.90;;;;;;5053320;28;20029;-85
2022/11/30 02:11:04;;;;;;;109.43;103.68;;;5.60;99.90;;;;;;5054811;28;20024;-85
2022/11/30 02:13:39;;;;;;;78.65;74.05;;;5.50;99.90;;;;;;5056348;28;20037;-86
2022/11/30 02:16:36;;;;;;;84.43;79.60;;;5.60;99.90;;;;;;5049435;28;20025;-86
2022/11/30 02:19:40;;;;;;;62.70;58.03;;;5.60;99.90;;;;;;5054708;28;20068;-86
2022/11/30 02:22:26;;;;;;;78.68;74.38;;;5.70;99.90;;;;;;5042389;28;20043;-84
2022/11/30 02:25:16;;;;;;;59.15;55.25;;;5.80;99.90;;;;;;5060255;28;20056;-84
2022/11/30 02:27:57;;;;;;;88.25;83.18;;;5.70;99.90;;;;;;5045368;28;20030;-85
2022/11/30 02:30:23;;;;;;;74.38;69.28;;;5.60;99.90;;;;;;5052751;28;20519;-88
2022/11/30 02:32:59;;;;;;;69.93;65.85;;;5.60;99.90;;;;;;5051153;28;20119;-87
2022/11/30 02:35:29;;;;;;;85.43;80.13;;;5.60;99.90;;;;;;5056545;28;20554;-86
2022/11/30 02:37:56;;;;;;;56.38;51.28;;;5.50;99.90;;;;;;5069096;28;20480;-83
2022/11/30 02:40:22;;;;;;;40.30;36.65;;;5.40;99.90;;;;;;5052307;28;20490;-84
2022/11/30 02:42:51;;;;;;;27.98;25.65;;;5.30;99.90;;;;;;5055273;28;20028;-84
2022/11/30 02:45:22;;;;;;;105.28;97.22;;;5.20;99.90;;;;;;5051669;28;20123;-84
2022/11/30 02:48:10;;;;;;;87.43;82.10;;;5.20;99.90;;;;;;5055169;28;20036;-87
2022/11/30 02:50:47;;;;;;;74.88;70.60;;;5.10;99.90;;;;;;5049837;28;20108;-86
2022/11/30 02:53:13;;;;;;;103.13;98.13;;;5.00;99.90;;;;;;5044361;28;20028;-82
2022/11/30 02:55:39;;;;;;;84.60;79.55;;;5.00;99.90;;;;;;5055120;28;20028;-82
2022/11/30 02:58:05;;;;;;;103.65;97.53;;;5.00;99.90;;;;;;5061252;28;20748;-88
2022/11/30 03:00:31;;;;;;;83.72;78.43;;;5.00;99.90;;;;;;5054291;28;20515;-83
2022/11/30 03:02:58;;;;;;;42.75;39.35;;;4.90;99.90;;;;;;5039068;28;20037;-86
2022/11/30 03:05:24;;;;;;;76.35;71.88;;;4.90;99.90;;;;;;5057255;28;20086;-85
2022/11/30 03:07:49;;;;;;;82.20;77.30;;;4.90;99.90;;;;;;5052007;28;20029;-85
2022/11/30 03:10:16;;;;;;;52.17;48.28;;;4.90;99.90;;;;;;5063847;28;20380;-84
2022/11/30 03:12:42;;;;;;;31.20;28.38;;;4.90;99.90;;;;;;5050279;28;20175;-83
2022/11/30 03:15:08;;;;;;;41.33;38.05;;;4.90;99.90;;;;;;5059430;28;20518;-87
2022/11/30 03:17:34;;;;;;;84.75;80.05;;;4.80;99.90;;;;;;5056265;28;20029;-83
2022/11/30 03:19:59;;;;;;;56.95;53.45;;;4.70;99.90;;;;;;5055911;28;20028;-86
2022/11/30 03:22:25;;;;;;;56.70;52.42;;;4.70;99.90;;;;;;5055168;28;20411;-85
2022/11/30 03:24:51;;;;;;;31.00;27.45;;;4.70;99.90;;;;;;5052665;28;20714;-83
2022/11/30 03:27:16;;;;;;;28.52;25.80;;;4.70;99.90;;;;;;5055279;28;20423;-86
2022/11/30 03:29:42;;;;;;;30.90;27.02;;;4.70;99.90;;;;;;5057338;28;20059;-84
2022/11/30 03:32:08;;;;;;;55.30;50.63;;;4.60;99.90;;;;;;5059106;28;20041;-84
2022/11/30 03:34:34;;;;;;;67.20;63.15;;;4.50;99.90;;;;;;5068292;28;20046;-84
2022/11/30 03:37:00;;;;;;;39.75;36.35;;;4.60;99.90;;;;;;5067153;28;20049;-88
2022/11/30 03:39:25;;;;;;;40.78;37.83;;;4.60;99.90;;;;;;5064122;28;20033;-85
2022/11/30 03:41:51;;;;;;;41.25;37.58;;;4.70;99.90;;;;;;5061225;28;20032;-87
2022/11/30 03:44:18;;;;;;;50.05;46.33;;;4.70;99.90;;;;;;5064422;28;20040;-84
2022/11/30 03:46:44;;;;;;;56.33;52.22;;;4.70;99.90;;;;;;5065780;28;20024;-81
2022/11/30 03:49:10;;;;;;;38.33;34.80;;;4.70;99.90;;;;;;5063999;28;20139;-87
2022/11/30 03:51:36;;;;;;;34.92;31.98;;;4.60;99.90;;;;;;5065737;28;20044;-85
2022/11/30 03:54:02;;;;;;;28.30;23.48;;;4.50;99.90;;;;;;5064425;28;20505;-86
2022/11/30 03:56:28;;;;;;;53.15;49.28;;;4.60;99.90;;;;;;5066442;28;20047;-82
2022/11/30 03:58:54;;;;;;;54.33;50.45;;;4.60;99.90;;;;;;5076853;28;20028;-85
2022/11/30 04:01:22;;;;;;;57.70;53.58;;;4.70;99.90;;;;;;5065871;28;20033;-86
2022/11/30 04:03:48;;;;;;;68.63;63.78;;;4.70;99.90;;;;;;5051373;28;20391;-87
2022/11/30 04:06:14;;;;;;;50.60;46.92;;;4.70;99.90;;;;;;5066694;28;20039;-84
2022/11/30 04:08:41;;;;;;;66.45;62.10;;;4.80;99.90;;;;;;5071116;28;20041;-83
2022/11/30 04:11:07;;;;;;;52.15;48.42;;;4.80;99.90;;;;;;5070092;28;20032;-86
2022/11/30 04:13:34;;;;;;;53.70;49.92;;;4.80;99.90;;;;;;5068862;28;20047;-85
2022/11/30 04:16:00;;;;;;;66.65;61.97;;;4.70;99.90;;;;;;5063642;28;20032;-83
2022/11/30 04:18:27;;;;;;;65.82;61.03;;;4.70;99.90;;;;;;5064213;28;20040;-86
2022/11/30 04:20:54;;;;;;;51.72;47.47;;;4.70;99.90;;;;;;5084928;28;20056;-86
2022/11/30 04:23:21;;;;;;;70.78;65.57;;;4.70;99.90;;;;;;5065531;28;20025;-86
2022/11/30 04:25:47;;;;;;;61.35;56.65;;;4.70;99.90;;;;;;5069619;28;20032;-88
2022/11/30 04:28:15;;;;;;;48.83;45.00;;;4.70;99.90;;;;;;5068397;28;20037;-84
2022/11/30 04:30:42;;;;;;;52.10;47.28;;;4.70;99.90;;;;;;5055042;28;20032;-84
2022/11/30 04:33:07;;;;;;;87.95;82.10;;;4.60;99.90;;;;;;5075142;28;20028;-86
2022/11/30 04:35:38;;;;;;;37.45;34.08;;;4.60;99.90;;;;;;5067505;28;20040;-87
2022/11/30 04:38:03;;;;;;;43.00;39.05;;;4.60;99.90;;;;;;5070582;28;20067;-85
2022/11/30 04:40:29;;;;;;;67.90;62.85;;;4.70;99.90;;;;;;5034448;28;20514;-87
2022/11/30 04:42:54;;;;;;;51.90;47.90;;;4.70;99.90;;;;;;5069493;28;20453;-87
2022/11/30 04:45:20;;;;;;;58.45;53.65;;;4.80;99.90;;;;;;5067040;28;20032;-84
2022/11/30 04:47:46;;;;;;;44.83;41.03;;;4.70;99.90;;;;;;5069546;28;20520;-83
2022/11/30 04:50:11;;;;;;;43.50;39.13;;;4.70;99.90;;;;;;5062632;28;20032;-87
2022/11/30 04:52:37;;;;;;;53.33;48.92;;;4.70;99.90;;;;;;5063179;28;20494;-85
2022/11/30 04:55:03;;;;;;;34.03;27.23;;;4.60;99.90;;;;;;5066358;28;20028;-85
2022/11/30 04:57:29;;;;;;;58.72;53.67;;;4.60;99.90;;;;;;5060983;28;20033;-87
2022/11/30 04:59:57;;;;;;;52.75;46.55;;;4.60;99.90;;;;;;5069238;28;20039;-84
2022/11/30 05:02:22;;;;;;;42.35;38.15;;;4.70;99.90;;;;;;5059494;28;20558;-87
2022/11/30 05:04:48;;;;;;;86.60;81.68;;;4.70;99.90;;;;;;5058511;28;20032;-85
2022/11/30 05:07:14;;;;;;;64.32;59.47;;;4.70;99.90;;;;;;5065911;28;20582;-82
2022/11/30 05:09:39;;;;;;;49.78;45.15;;;4.70;99.90;;;;;;5070217;28;20036;-87
2022/11/30 05:12:06;;;;;;;65.70;60.03;;;4.70;99.90;;;;;;5069301;28;20521;-88
2022/11/30 05:14:32;;;;;;;37.67;33.85;;;4.70;99.90;;;;;;5068018;28;20032;-84
2022/11/30 05:16:58;;;;;;;41.20;31.63;;;4.60;99.90;;;;;;5064543;28;20075;-89
2022/11/30 05:19:24;;;;;;;69.70;64.63;;;4.60;99.90;;;;;;5085628;28;20508;-89
2022/11/30 05:21:50;;;;;;;45.85;38.45;;;4.50;99.90;;;;;;5066530;28;20131;-90
2022/11/30 05:24:16;;;;;;;45.90;40.58;;;4.50;99.90;;;;;;5058334;28;20017;-84
2022/11/30 05:26:41;;;;;;;55.70;50.88;;;4.50;99.90;;;;;;5048422;28;20120;-86
2022/11/30 05:29:07;;;;;;;50.50;45.78;;;4.60;99.90;;;;;;5062830;28;20111;-81
2022/11/30 05:31:33;;;;;;;41.65;38.28;;;4.60;99.90;;;;;;5067242;28;20044;-82
2022/11/30 05:33:58;;;;;;;38.33;34.80;;;4.60;99.90;;;;;;5065904;28;20044;-84
2022/11/30 05:36:24;;;;;;;33.17;29.98;;;4.60;99.90;;;;;;5071369;28;20052;-85
2022/11/30 05:38:50;;;;;;;54.83;50.35;;;4.60;99.90;;;;;;5064526;28;20048;-83
2022/11/30 05:41:15;;;;;;;45.22;41.63;;;4.60;99.90;;;;;;5066806;28;20029;-81
2022/11/30 05:43:41;;;;;;;22.17;18.83;;;4.60;99.90;;;;;;5064695;28;20048;-80
2022/11/30 05:46:08;;;;;;;27.33;24.83;;;4.40;99.90;;;;;;5065163;28;20074;-79
2022/11/30 05:48:35;;;;;;;43.63;40.53;;;4.30;99.90;;;;;;5065028;28;20116;-82
2022/11/30 05:51:08;;;;;;;37.17;34.30;;;4.30;99.90;;;;;;5049124;28;20135;-83
2022/11/30 05:53:34;;;;;;;28.80;20.25;;;4.30;99.90;;;;;;5064171;28;20596;-87
2022/11/30 05:56:11;;;;;;;34.80;32.13;;;4.40;99.90;;;;;;5062173;28;20048;-85
2022/11/30 05:58:37;;;;;;;47.88;43.72;;;4.40;99.90;;;;;;5063975;28;20029;-82
2022/11/30 06:01:03;;;;;;;56.50;52.60;;;4.50;99.90;;;;;;5060349;28;20560;-88
2022/11/30 06:03:31;;;;;;;49.97;46.03;;;4.40;99.90;;;;;;5063114;28;20078;-86
2022/11/30 06:05:57;;;;;;;71.05;65.85;;;4.50;99.90;;;;;;5064982;28;20107;-80
2022/11/30 06:08:23;;;;;;;56.92;52.38;;;4.50;99.90;;;;;;5068531;28;20123;-79
2022/11/30 06:10:49;;;;;;;69.88;62.95;;;4.60;99.90;;;;;;5068912;28;20064;-80
2022/11/30 06:13:15;;;;;;;28.20;24.05;;;4.60;99.90;;;;;;5067256;28;20481;-84
2022/11/30 06:15:41;;;;;;;30.15;26.92;;;4.60;99.90;;;;;;5065947;28;20024;-85
2022/11/30 06:18:08;;;;;;;60.75;55.75;;;4.60;99.90;;;;;;5040981;28;20043;-81
2022/11/30 06:20:34;;;;;;;64.28;59.22;;;4.60;99.90;;;;;;5065813;28;20040;-80
2022/11/30 06:22:59;;;;;;;39.03;35.00;;;4.50;99.90;;;;;;5049665;28;20029;-83
2022/11/30 06:25:26;;;;;;;35.40;32.50;;;4.40;99.90;;;;;;5059743;28;20037;-86
2022/11/30 06:27:52;;;;;;;48.80;44.47;;;4.30;99.90;;;;;;5064555;28;20028;-86
2022/11/30 06:30:19;;;;;;;65.97;61.28;;;4.30;99.90;;;;;;5063237;28;20086;-82
2022/11/30 06:32:49;;;;;;;50.25;45.05;;;4.50;99.90;;;;;;5062998;28;20025;-80
2022/11/30 06:35:15;;;;;;;46.20;40.58;;;4.40;99.90;;;;;;5065017;28;20417;-80
2022/11/30 06:37:41;;;;;;;38.60;27.25;;;4.40;99.90;;;;;;5067508;28;20045;-82
2022/11/30 06:40:09;;;;;;;46.33;40.25;;;4.50;99.90;;;;;;5061859;28;20505;-82
2022/11/30 06:42:36;;;;;;;33.70;25.90;;;4.40;99.90;;;;;;5062339;28;20124;-81
2022/11/30 06:45:03;;;;;;;31.90;26.33;;;4.40;99.90;;;;;;5066394;28;20036;-86
2022/11/30 06:47:28;;;;;;;49.35;44.83;;;4.40;99.90;;;;;;5065888;28;20086;-85
2022/11/30 06:49:54;;;;;;;45.00;41.08;;;4.50;99.90;;;;;;5064416;28;20061;-82
2022/11/30 06:52:20;;;;;;;49.20;44.80;;;4.50;99.90;;;;;;5057754;28;20538;-84
2022/11/30 06:54:45;;;;;;;56.75;52.42;;;4.50;99.90;;;;;;5060157;28;20086;-85
2022/11/30 06:57:11;;;;;;;64.20;58.72;;;4.30;99.90;;;;;;5058046;28;20495;-87
2022/11/30 06:59:41;;;;;;;61.50;56.97;;;4.30;99.90;;;;;;5058745;28;20032;-83
2022/11/30 07:02:12;;;;;;;50.00;32.10;;;4.40;99.90;;;;;;5059683;28;20048;-84
2022/11/30 07:04:41;;;;;;;37.88;31.80;;;4.30;99.90;;;;;;5062872;28;20039;-88
2022/11/30 07:07:07;;;;;;;59.30;53.92;;;4.30;99.90;;;;;;5064108;28;20024;-88
2022/11/30 07:09:36;;;;;;;58.10;52.92;;;4.40;99.90;;;;;;5056285;28;20039;-86
2022/11/30 07:12:04;;;;;;;44.17;40.15;;;4.40;99.90;;;;;;5057393;28;20395;-85
2022/11/30 07:14:31;;;;;;;38.95;26.90;;;4.50;99.90;;;;;;5058761;28;20496;-87
2022/11/30 07:16:56;;;;;;;64.15;58.72;;;4.30;99.90;;;;;;5062585;28;20193;-86
2022/11/30 07:19:23;;;;;;;80.88;75.63;;;4.40;99.90;;;;;;5059714;28;20131;-84
2022/11/30 07:21:48;;;;;;;44.78;39.03;;;4.40;99.90;;;;;;5080211;28;20029;-86
2022/11/30 07:27:01;;;;;;;36.90;28.70;;;4.30;99.90;;;;;;5063518;28;20081;-86
2022/11/30 07:29:26;;;;;;;39.63;27.38;;;4.40;99.90;;;;;;5059639;28;20060;-85
2022/11/30 07:31:53;;;;;;;69.80;64.32;;;4.40;99.90;;;;;;5064735;28;20432;-84
2022/11/30 07:34:19;;;;;;;38.83;34.75;;;4.50;99.90;;;;;;5063911;28;20047;-82
2022/11/30 07:36:46;;;;;;;85.95;78.35;;;4.50;99.90;;;;;;5064891;28;20084;-80
2022/11/30 07:39:14;;;;;;;115.55;107.53;;;4.50;99.90;;;;;;5060270;28;20032;-82
2022/11/30 07:41:41;;;;;;;55.13;49.05;;;4.40;99.90;;;;;;5071116;28;20102;-80
2022/11/30 07:44:07;;;;;;;62.58;56.95;;;4.30;99.90;;;;;;5058870;28;20033;-81
2022/11/30 07:46:34;;;;;;;57.60;51.97;;;4.30;99.90;;;;;;5067946;28;20494;-84
2022/11/30 07:49:08;;;;;;;43.50;34.30;;;4.30;99.90;;;;;;5070089;28;20052;-82
2022/11/30 07:51:35;;;;;;;36.40;29.90;;;4.40;99.90;;;;;;5069565;28;20086;-80
2022/11/30 07:54:02;;;;;;;37.08;23.92;;;4.30;99.90;;;;;;5057926;28;20520;-85
2022/11/30 07:56:28;;;;;;;24.30;20.70;;;4.20;99.90;;;;;;5058511;28;20033;-84
2022/11/30 07:58:59;;;;;;;166.15;148.25;;;4.20;99.90;;;;;;5066932;28;20403;-84
2022/11/30 08:01:31;;;;;;;48.53;43.97;;;4.10;99.90;;;;;;5065951;28;20134;-83
2022/11/30 08:03:58;;;;;;;68.93;62.40;;;4.20;99.90;;;;;;5061663;28;20029;-83
2022/11/30 08:06:27;;;;;;;48.38;43.90;;;4.20;99.90;;;;;;5068736;28;20033;-85
2022/11/30 08:08:56;;;;;;;46.15;41.38;;;4.20;99.90;;;;;;5052006;28;20119;-90
2022/11/30 08:11:24;;;;;;;76.53;70.55;;;4.30;99.90;;;;;;5066956;28;20106;-89
2022/11/30 08:13:50;;;;;;;51.22;46.13;;;4.30;99.90;;;;;;5067378;28;20528;-90
2022/11/30 08:16:21;;;;;;;64.78;58.80;;;4.30;99.90;;;;;;5068250;28;20033;-89
2022/11/30 08:18:48;;;;;;;89.88;83.32;;;4.30;99.90;;;;;;5063912;28;20024;-89
2022/11/30 08:21:16;;;;;;;66.70;61.47;;;4.30;99.90;;;;;;5065773;28;20123;-82
2022/11/30 08:23:44;;;;;;;73.70;67.32;;;4.30;99.90;;;;;;5065168;28;20021;-85
2022/11/30 08:26:18;;;;;;;34.67;25.63;;;4.30;99.90;;;;;;5068330;28;20066;-85
2022/11/30 08:28:46;;;;;;;43.13;31.15;;;4.30;99.90;;;;;;5065381;28;20545;-86
2022/11/30 08:31:14;;;;;;;32.00;28.50;;;4.30;99.90;;;;;;5051487;28;20044;-84
2022/11/30 08:33:40;;;;;;;33.30;26.15;;;4.30;99.90;;;;;;5067229;28;20111;-86
2022/11/30 08:36:11;;;;;;;39.13;34.22;;;4.20;99.90;;;;;;5065654;28;20697;-86
2022/11/30 08:38:37;;;;;;;92.30;85.63;;;4.00;99.90;;;;;;5061949;28;20041;-88
2022/11/30 08:41:04;;;;;;;43.33;39.72;;;4.00;99.90;;;;;;5064463;28;20375;-88
2022/11/30 08:43:30;;;;;;;82.97;77.28;;;3.90;99.90;;;;;;5056445;28;20150;-87
2022/11/30 08:45:56;;;;;;;78.15;72.97;;;3.90;99.90;;;;;;5064642;28;20423;-88
2022/11/30 08:48:23;;;;;;;68.53;62.90;;;3.90;99.90;;;;;;5066443;28;20064;-88
2022/11/30 08:50:49;;;;;;;32.85;23.73;;;3.90;99.90;;;;;;5068459;28;20020;-86
2022/11/30 08:53:15;;;;;;;75.60;69.85;;;4.00;99.90;;;;;;5051751;28;20089;-88
2022/11/30 08:55:40;;;;;;;48.33;44.40;;;4.00;99.90;;;;;;5069090;28;20033;-83
2022/11/30 08:58:06;;;;;;;35.38;30.08;;;4.00;99.90;;;;;;5069532;28;20052;-86
2022/11/30 09:00:32;;;;;;;42.60;37.17;;;4.00;99.90;;;;;;5064126;28;20039;-88
2022/11/30 09:02:57;;;;;;;38.33;33.97;;;4.00;99.90;;;;;;5050272;28;20024;-88
2022/11/30 09:05:23;;;;;;;45.75;41.30;;;3.90;99.90;;;;;;5057838;28;20087;-87
2022/11/30 09:07:50;;;;;;;65.78;61.00;;;3.90;99.90;;;;;;5067970;28;20043;-87
2022/11/30 09:10:15;;;;;;;60.22;54.42;;;3.80;99.90;;;;;;5067905;28;20032;-86
2022/11/30 09:12:41;;;;;;;36.90;31.40;;;3.90;99.90;;;;;;5061021;28;20137;-88
2022/11/30 09:15:08;;;;;;;35.00;30.58;;;3.90;99.90;;;;;;5066228;28;20016;-86
2022/11/30 09:17:34;;;;;;;53.60;48.95;;;4.00;99.90;;;;;;5067044;28;20429;-84
2022/11/30 09:20:00;;;;;;;73.28;67.05;;;4.00;99.90;;;;;;5064967;28;20036;-87
2022/11/30 09:22:27;;;;;;;35.08;30.70;;;3.90;99.90;;;;;;5064421;28;20067;-87
2022/11/30 09:24:53;;;;;;;61.38;56.80;;;3.90;99.90;;;;;;5063925;28;20028;-87
2022/11/30 09:27:19;;;;;;;40.33;32.47;;;3.90;99.90;;;;;;5068022;28;20035;-82
2022/11/30 09:29:44;;;;;;;80.57;75.00;;;3.90;99.90;;;;;;5069898;28;20452;-87
2022/11/30 09:32:10;;;;;;;44.15;36.17;;;3.80;99.90;;;;;;5065993;28;20037;-88
2022/11/30 09:34:36;;;;;;;29.02;21.02;;;3.90;99.90;;;;;;5062001;28;20517;-83
2022/11/30 09:37:02;;;;;;;30.13;26.08;;;3.90;99.90;;;;;;5063287;28;20213;-84
2022/11/30 09:39:27;;;;;;;34.72;22.38;;;3.90;99.90;;;;;;5058465;28;20110;-85
2022/11/30 09:42:12;;;;;;;34.47;24.77;;;3.90;99.90;;;;;;5063860;28;20032;-87
2022/11/30 09:45:06;;;;;;;33.33;27.38;;;3.80;99.90;;;;;;5063973;28;20052;-84
2022/11/30 09:47:57;;;;;;;30.10;19.08;;;3.80;99.90;;;;;;5057021;28;20394;-87
2022/11/30 09:50:27;;;;;;;25.70;21.55;;;3.90;99.90;;;;;;5064965;28;20553;-87
2022/11/30 09:53:01;;;;;;;22.45;18.77;;;4.00;99.90;;;;;;5064433;28;20047;-87
2022/11/30 09:55:31;;;;;;;27.88;23.77;;;3.90;99.90;;;;;;5065596;28;20086;-87
2022/11/30 09:58:03;;;;;;;160.77;150.95;;;3.80;99.90;;;;;;5064718;28;20036;-86
2022/11/30 10:00:29;;;;;;;30.70;27.60;;;3.70;99.90;;;;;;5044849;28;20071;-87
2022/11/30 10:02:57;;;;;;;19.20;17.27;;;3.60;99.90;;;;;;5067005;28;20020;-84
2022/11/30 10:05:48;;;;;;;22.55;20.23;;;3.70;99.90;;;;;;5061459;28;20031;-90
2022/11/30 10:08:20;;;;;;;21.42;19.38;;;3.80;99.90;;;;;;5054201;28;20041;-88
2022/11/30 10:10:57;;;;;;;27.75;24.77;;;3.80;99.90;;;;;;5063702;28;20059;-89
2022/11/30 10:14:08;;;;;;;25.40;22.38;;;3.90;99.90;;;;;;5080713;28;20051;-86
2022/11/30 10:16:59;;;;;;;22.95;18.98;;;3.90;99.90;;;;;;5061322;28;20089;-90
2022/11/30 10:19:32;;;;;;;18.27;16.52;;;3.90;99.90;;;;;;5064366;28;20029;-87
2022/11/30 10:22:00;;;;;;;28.38;21.05;;;3.70;99.90;;;;;;5065429;28;20028;-87
2022/11/30 10:24:47;;;;;;;29.90;20.50;;;3.70;99.90;;;;;;5066009;28;20428;-86
2022/11/30 10:27:32;;;;;;;30.45;26.70;;;3.70;99.90;;;;;;5063031;28;20059;-90
2022/11/30 10:30:00;;;;;;;21.05;16.15;;;3.80;99.90;;;;;;5061498;28;20082;-89
2022/11/30 10:32:35;;;;;;;29.55;26.75;;;3.60;99.90;;;;;;5056684;28;20095;-88
2022/11/30 10:35:14;;;;;;;30.15;28.00;;;3.70;99.90;;;;;;5064627;28;20032;-85
2022/11/30 10:37:41;;;;;;;20.27;17.67;;;3.70;99.90;;;;;;5062902;28;20041;-90
2022/11/30 10:40:24;;;;;;;19.77;17.77;;;3.70;99.90;;;;;;5062567;28;20033;-86
2022/11/30 10:43:03;;;;;;;26.90;24.50;;;3.60;99.90;;;;;;5064260;28;20021;-87
2022/11/30 10:45:31;;;;;;;15.75;12.93;;;3.60;99.90;;;;;;5067371;28;20033;-87
2022/11/30 10:48:14;;;;;;;21.45;16.52;;;3.60;99.90;;;;;;5063383;28;20078;-87
2022/11/30 10:50:40;;;;;;;22.00;16.23;;;3.70;99.90;;;;;;5066257;28;20471;-79
2022/11/30 10:53:10;;;;;;;17.27;15.57;;;3.70;99.90;;;;;;5063333;28;20031;-78
2022/11/30 10:55:40;;;;;;;24.52;22.33;;;3.70;99.90;;;;;;5060088;28;20494;-78
2022/11/30 10:58:17;;;;;;;;;;;3.60;99.90;;;;;;5062063;28;20047;-78
2022/11/30 11:00:57;;;;;;;19.15;17.52;;;3.60;99.90;;;;;;5073825;28;19948;-81
2022/11/30 11:03:24;;;;;;;14.95;13.55;;;3.40;99.90;;;;;;5056522;28;20070;-78
2022/11/30 11:06:18;;;;;;;19.67;14.35;;;3.40;99.90;;;;;;5060884;28;20032;-79
2022/11/30 11:08:45;;;;;;;15.30;13.52;;;3.50;99.90;;;;;;5064052;28;20078;-82
2022/11/30 11:11:37;;;;;;;29.00;18.67;;;3.70;99.90;;;;;;5084635;28;20501;-80
2022/11/30 11:14:14;;;;;;;16.70;13.45;;;3.80;99.90;;;;;;5062412;28;20028;-80
2022/11/30 11:17:03;;;;;;;18.05;16.25;;;3.70;99.90;;;;;;5066975;28;20031;-81
2022/11/30 11:19:36;;;;;;;17.02;14.75;;;3.70;99.90;;;;;;5070680;28;20063;-78
2022/11/30 11:22:26;;;;;;;20.55;15.07;;;3.70;99.90;;;;;;5072244;28;20100;-79
2022/11/30 11:25:21;;;;;;;22.57;18.57;;;3.70;99.90;;;;;;5062030;28;20045;-87
2022/11/30 11:28:14;;;;;;;26.58;24.17;;;3.90;99.90;;;;;;5068875;28;20137;-79
2022/11/30 11:30:40;;;;;;;17.08;12.57;;;3.70;99.90;;;;;;5059947;28;20256;-80
2022/11/30 11:33:11;;;;;;;16.00;12.43;;;3.80;99.90;;;;;;5069185;28;20041;-79
2022/11/30 11:35:38;;;;;;;13.20;12.00;;;3.80;99.90;;;;;;5063620;28;20029;-80
2022/11/30 11:38:25;;;;;;;19.50;14.02;;;3.70;99.90;;;;;;5060583;28;20041;-78
2022/11/30 11:41:01;;;;;;;39.65;37.10;;;3.60;99.90;;;;;;5071434;28;20032;-84
2022/11/30 11:43:32;;;;;;;11.32;10.38;;;3.70;99.90;;;;;;5062751;28;20055;-82
2022/11/30 11:46:08;;;;;;;10.57;9.60;;;3.70;99.90;;;;;;5065695;28;20770;-83
2022/11/30 11:48:57;;;;;;;14.60;12.27;;;3.80;99.90;;;;;;5069422;28;20050;-79
2022/11/30 11:52:21;;;;;;;11.93;10.25;;;3.90;99.90;;;;;;5066005;28;20051;-85
2022/11/30 11:54:54;;;;;;;12.93;10.18;;;3.80;99.90;;;;;;5059724;28;20037;-80
2022/11/30 11:57:26;;;;;;;13.00;11.70;;;3.70;99.90;;;;;;5064978;28;20036;-80
2022/11/30 12:00:04;;;;;;;14.68;13.23;;;3.60;99.90;;;;;;5063886;28;20025;-81
2022/11/30 12:02:36;;;;;;;12.27;11.18;;;3.60;99.90;;;;;;5063743;28;20025;-82
2022/11/30 12:05:04;;;;;;;11.95;10.75;;;3.70;99.90;;;;;;5079483;28;20073;-81
2022/11/30 12:07:52;;;;;;;18.30;16.83;;;3.80;99.90;;;;;;5067501;28;20234;-81
2022/11/30 12:10:27;;;;;;;14.85;12.27;;;3.70;99.90;;;;;;5084032;28;20529;-82
2022/11/30 12:12:55;;;;;;;26.08;24.35;;;3.80;99.90;;;;;;5067175;28;20048;-84
2022/11/30 12:15:31;;;;;;;16.15;12.70;;;3.60;99.90;;;;;;5061512;28;20097;-85
2022/11/30 12:18:18;;;;;;;12.15;11.13;;;3.60;99.90;;;;;;5066975;28;20037;-86
2022/11/30 12:20:54;;;;;;;16.60;14.90;;;3.80;99.90;;;;;;5066170;28;20033;-81
2022/11/30 12:23:54;;;;;;;34.80;32.20;;;3.70;99.90;;;;;;5064344;28;20125;-81
2022/11/30 12:26:29;;;;;;;11.73;10.68;;;3.70;99.90;;;;;;5079607;28;20035;-79
2022/11/30 12:29:13;;;;;;;14.32;12.93;;;3.50;99.90;;;;;;5061379;28;20391;-88
2022/11/30 12:32:11;;;;;;;12.65;10.43;;;3.50;99.90;;;;;;5064219;28;20025;-89
2022/11/30 12:35:15;;;;;;;10.98;9.02;;;3.40;99.90;;;;;;5045110;28;20033;-85
2022/11/30 12:37:59;;;;;;;30.25;28.17;;;3.20;99.90;;;;;;5043953;28;20037;-85
2022/11/30 12:40:55;;;;;;;72.65;66.15;;;3.20;99.90;;;;;;5063326;28;20041;-85
2022/11/30 12:43:54;;;;;;;19.15;16.52;;;3.10;99.90;;;;;;5068265;28;20021;-87
2022/11/30 12:46:36;;;;;;;11.45;10.45;;;3.20;99.90;;;;;;5066420;28;20141;-85
2022/11/30 12:49:11;;;;;;;10.05;9.25;;;3.10;99.90;;;;;;5065181;28;20033;-84
2022/11/30 12:51:50;;;;;;;83.38;76.28;;;3.20;99.90;;;;;;5069419;28;20025;-87
2022/11/30 12:54:28;;;;;;;14.20;11.50;;;3.20;99.90;;;;;;5068068;28;20043;-86